Loch Alpine, Michigan
Current Conditions -  °F | °C
As of 7:06 PM on Thursday 27 Nov 2014 (Local Time) from KARB Reporting Station
Overcast Overcast  
Wind Chill: 19°   Ceiling: 7000
Heat Index: 28°   Visibility: 10mi
Dew Point: 18°   Wind: 10mph
Humidity: 66%   Direction: 320°NW
Pressure: 30.25"   Gusts: NA
Location:  42.2601°N, 83.8448°W
Report Text: KARB 280006Z AUTO 32009KT 10SM FEW021 SCT028 OVC070 M02/M08 A3025 RMK AO2 T10221078
Loading
Personal Weather Stations






























Interactive Weather Map New forecast layout! Learn more

10-Day Weather Forecast

Advertisements
Track Severe Weather on mobile